Time;durP1;ratioP1;P1;durP2;ratioP2;P2;SDS_P1;SDS_P2;PMS_P1;PMS_P2;Temp;Humidity;BMP_temperature;BMP_pressure;BME280_temperature;BME280_humidity;BME280_pressure;Samples;Min_cycle;Max_cycle;Signal;HPM_P1;HPM_P2
2023/02/09 00:00:05;;;;;;;106.60;31.47;;;-8.30;99.90;;;;;;4409914;28;659209;-71
2023/02/09 00:02:52;;;;;;;85.22;28.45;;;-8.30;99.90;;;;;;4387392;28;660025;-71
2023/02/09 00:05:39;;;;;;;99.97;31.70;;;-8.30;99.90;;;;;;4407032;28;658690;-70
2023/02/09 00:08:27;;;;;;;72.93;24.70;;;-8.40;99.90;;;;;;4387770;28;658656;-71
2023/02/09 00:11:18;;;;;;;65.93;21.80;;;-8.40;99.90;;;;;;4407344;28;658560;-71
2023/02/09 00:14:04;;;;;;;72.33;23.00;;;-8.50;99.90;;;;;;4368364;28;659326;-71
2023/02/09 00:16:52;;;;;;;60.23;22.13;;;-8.40;99.90;;;;;;4405215;28;659061;-72
2023/02/09 00:19:39;;;;;;;81.70;25.53;;;-8.50;99.90;;;;;;4412684;28;658290;-71
2023/02/09 00:22:26;;;;;;;168.27;42.57;;;-8.60;99.90;;;;;;4384444;28;658871;-71
2023/02/09 00:25:13;;;;;;;109.53;31.70;;;-8.60;99.90;;;;;;4404075;28;660548;-71
2023/02/09 00:28:02;;;;;;;236.37;51.13;;;-8.70;99.90;;;;;;4381433;28;661458;-72
2023/02/09 00:30:49;;;;;;;252.23;53.43;;;-8.70;99.90;;;;;;4400003;28;659563;-70
2023/02/09 00:33:36;;;;;;;193.87;45.77;;;-8.70;99.90;;;;;;4383615;28;659543;-71
2023/02/09 00:36:24;;;;;;;191.60;46.00;;;-8.70;99.90;;;;;;4397829;28;659902;-72
2023/02/09 00:39:11;;;;;;;125.07;34.33;;;-8.70;99.90;;;;;;4387682;28;659363;-71
2023/02/09 00:42:07;;;;;;;102.77;29.10;;;-8.70;99.90;;;;;;4401668;28;659759;-72
2023/02/09 00:44:55;;;;;;;164.37;39.10;;;-8.70;99.90;;;;;;4377668;28;659699;-71
2023/02/09 00:47:43;;;;;;;223.57;51.27;;;-8.70;99.90;;;;;;4381097;28;660215;-71
2023/02/09 00:50:30;;;;;;;280.13;58.40;;;-8.70;99.90;;;;;;4387867;28;659501;-71
2023/02/09 00:53:18;;;;;;;140.77;42.87;;;-8.80;99.90;;;;;;4406233;28;660405;-71
2023/02/09 00:56:06;;;;;;;126.20;37.63;;;-8.80;99.90;;;;;;4271381;28;660418;-72
2023/02/09 00:58:53;;;;;;;104.43;35.27;;;-8.70;99.90;;;;;;4230435;28;659846;-72
2023/02/09 01:01:42;;;;;;;157.87;42.37;;;-8.80;99.90;;;;;;4269967;28;659673;-72
2023/02/09 01:04:29;;;;;;;124.17;34.30;;;-8.80;99.90;;;;;;4410144;28;659458;-71
2023/02/09 01:07:16;;;;;;;151.23;37.27;;;-8.90;99.90;;;;;;4391634;28;659502;-72
2023/02/09 01:10:04;;;;;;;114.03;33.50;;;-9.00;99.90;;;;;;4407934;28;660207;-71
2023/02/09 01:12:51;;;;;;;135.60;34.95;;;-9.10;99.90;;;;;;4386719;28;659871;-72
2023/02/09 01:15:39;;;;;;;144.60;39.07;;;-9.10;99.90;;;;;;4408520;28;660891;-73
2023/02/09 01:18:28;;;;;;;153.60;42.08;;;-9.20;99.90;;;;;;4385041;28;659536;-72
2023/02/09 01:21:16;;;;;;;179.07;47.90;;;-9.20;99.90;;;;;;4389739;28;659954;-74
2023/02/09 01:24:04;;;;;;;114.33;32.97;;;-9.30;99.90;;;;;;4404894;28;660533;-74
2023/02/09 01:26:51;;;;;;;139.67;37.53;;;-9.30;99.90;;;;;;4388835;28;659708;-73
2023/02/09 01:29:39;;;;;;;127.10;35.27;;;-9.20;99.90;;;;;;4409477;28;660401;-74
2023/02/09 01:32:26;;;;;;;141.00;35.60;;;-9.30;99.90;;;;;;4381619;28;659590;-73
2023/02/09 01:35:15;;;;;;;123.10;34.70;;;-9.30;99.90;;;;;;4411170;28;659717;-73
2023/02/09 01:38:02;;;;;;;137.70;32.38;;;-9.30;99.90;;;;;;4385054;28;660885;-71
2023/02/09 01:40:50;;;;;;;371.57;71.90;;;-9.40;99.90;;;;;;4409043;28;660164;-72
2023/02/09 01:43:55;;;;;;;270.37;53.97;;;-9.30;99.90;;;;;;4385460;28;660479;-71
2023/02/09 01:46:43;;;;;;;235.65;50.83;;;-9.30;99.90;;;;;;4387617;28;659470;-72
2023/02/09 01:49:31;;;;;;;156.77;38.47;;;-9.40;99.90;;;;;;4388149;28;659811;-73
2023/02/09 01:52:21;;;;;;;181.43;41.73;;;-9.40;99.90;;;;;;4407081;28;660647;-72
2023/02/09 01:55:10;;;;;;;188.37;47.90;;;-9.40;99.90;;;;;;4384950;28;660296;-73
2023/02/09 01:57:59;;;;;;;176.33;47.30;;;-9.40;99.90;;;;;;4379388;28;661420;-73
2023/02/09 02:00:46;;;;;;;333.33;71.15;;;-9.40;99.90;;;;;;4383668;28;659629;-73
2023/02/09 02:03:34;;;;;;;214.43;53.57;;;-9.40;99.90;;;;;;4411513;28;660000;-72
2023/02/09 02:06:21;;;;;;;140.70;44.90;;;-9.40;99.90;;;;;;4385930;28;659773;-73
2023/02/09 02:09:11;;;;;;;121.40;40.53;;;-9.40;99.90;;;;;;4412498;28;660516;-73
2023/02/09 02:11:58;;;;;;;138.93;41.83;;;-9.40;99.90;;;;;;4388690;28;659716;-73
2023/02/09 02:14:45;;;;;;;130.97;42.10;;;-9.30;99.90;;;;;;4390109;28;660090;-73
2023/02/09 02:17:41;;;;;;;100.77;35.90;;;-9.40;99.90;;;;;;4403292;28;660612;-73
2023/02/09 02:20:53;;;;;;;82.10;28.87;;;-9.40;99.90;;;;;;4375747;28;660466;-73
2023/02/09 02:23:47;;;;;;;74.80;24.87;;;-9.40;99.90;;;;;;4385829;28;659021;-73
2023/02/09 02:26:52;;;;;;;80.80;24.20;;;-9.40;99.90;;;;;;4391221;28;658670;-72
2023/02/09 02:29:53;;;;;;;76.03;25.43;;;-9.40;99.90;;;;;;4384672;28;658694;-74
2023/02/09 02:32:49;;;;;;;109.40;29.38;;;-9.50;99.90;;;;;;4361277;28;658770;-74
2023/02/09 02:35:37;;;;;;;109.87;31.30;;;-9.50;99.90;;;;;;4383171;28;660041;-73
2023/02/09 02:38:29;;;;;;;102.53;28.13;;;-9.50;99.90;;;;;;4399768;28;660281;-73
2023/02/09 02:41:19;;;;;;;233.73;45.23;;;-9.60;99.90;;;;;;4383116;28;660355;-73
2023/02/09 02:44:08;;;;;;;156.57;38.00;;;-9.60;99.90;;;;;;4386398;28;659855;-73
2023/02/09 02:46:58;;;;;;;151.70;40.13;;;-9.60;99.90;;;;;;4387318;28;660364;-73
2023/02/09 02:49:49;;;;;;;115.47;32.63;;;-9.60;99.90;;;;;;4384615;28;660538;-73
2023/02/09 02:52:36;;;;;;;117.57;33.47;;;-9.60;99.90;;;;;;4375348;28;660033;-74
2023/02/09 02:55:24;;;;;;;110.78;32.42;;;-9.70;99.90;;;;;;4401553;28;660590;-73
2023/02/09 02:58:11;;;;;;;118.75;32.13;;;-9.60;99.90;;;;;;4376354;28;659996;-74
2023/02/09 03:00:59;;;;;;;104.47;32.47;;;-9.70;99.90;;;;;;4405948;28;659881;-73
2023/02/09 03:03:46;;;;;;;82.80;26.73;;;-9.70;99.90;;;;;;4382112;28;659493;-74
2023/02/09 03:06:35;;;;;;;86.20;27.35;;;-9.70;99.90;;;;;;4406532;28;660167;-73
2023/02/09 03:09:22;;;;;;;87.33;26.90;;;-9.70;99.90;;;;;;4374831;28;659361;-73
2023/02/09 03:12:13;;;;;;;67.82;22.15;;;-9.70;99.90;;;;;;4409147;28;658258;-74
2023/02/09 03:15:16;;;;;;;78.47;23.00;;;-9.70;99.90;;;;;;4364079;28;658991;-74
2023/02/09 03:18:10;;;;;;;70.07;21.63;;;-9.80;99.90;;;;;;4383034;28;659075;-73
2023/02/09 03:20:58;;;;;;;62.63;20.30;;;-9.80;99.90;;;;;;4381992;28;658883;-73
2023/02/09 03:23:48;;;;;;;71.63;21.47;;;-9.70;99.90;;;;;;4387121;28;658782;-74
2023/02/09 03:26:38;;;;;;;61.57;20.43;;;-9.80;99.90;;;;;;4376327;28;658650;-73
2023/02/09 03:29:26;;;;;;;63.07;20.47;;;-9.80;99.90;;;;;;4382239;28;658912;-73
2023/02/09 03:32:13;;;;;;;48.27;18.07;;;-9.80;99.90;;;;;;4410656;28;659166;-73
2023/02/09 03:35:00;;;;;;;49.80;16.67;;;-9.80;99.90;;;;;;4390573;28;658285;-74
2023/02/09 03:37:47;;;;;;;53.60;19.20;;;-9.80;99.90;;;;;;4409650;28;658978;-74
2023/02/09 03:40:37;;;;;;;54.33;18.67;;;-9.80;99.90;;;;;;4405520;28;658492;-74
2023/02/09 03:44:25;;;;;;;60.70;20.03;;;-9.80;99.90;;;;;;4410066;28;658812;-74
2023/02/09 03:46:32;;;;;;;49.77;17.30;;;-9.80;99.90;;;;;;4382923;28;658683;-74
2023/02/09 03:49:19;;;;;;;56.47;18.33;;;-9.70;99.90;;;;;;4409590;28;658656;-73
2023/02/09 03:52:07;;;;;;;48.47;16.57;;;-9.70;99.90;;;;;;4387637;28;659337;-74
2023/02/09 03:54:54;;;;;;;49.38;16.38;;;-9.70;99.90;;;;;;4411121;28;658612;-74
2023/02/09 03:57:43;;;;;;;43.13;14.97;;;-9.80;99.90;;;;;;4390625;28;658436;-74
2023/02/09 04:00:30;;;;;;;53.10;16.77;;;-9.70;99.90;;;;;;4404248;28;658675;-74
2023/02/09 04:03:17;;;;;;;65.53;18.97;;;-9.70;99.90;;;;;;4396914;28;659223;-74
2023/02/09 04:06:06;;;;;;;76.73;20.97;;;-9.80;99.90;;;;;;4405204;28;658534;-74
2023/02/09 04:08:53;;;;;;;102.68;26.13;;;-9.80;99.90;;;;;;4408602;28;659034;-73
2023/02/09 04:11:40;;;;;;;113.47;27.63;;;-9.80;99.90;;;;;;4385599;28;660511;-74
2023/02/09 04:14:29;;;;;;;97.50;27.20;;;-9.80;99.90;;;;;;4413080;28;659915;-73
2023/02/09 04:17:16;;;;;;;86.47;24.90;;;-9.80;99.90;;;;;;4390316;28;658574;-74
2023/02/09 04:20:04;;;;;;;81.07;24.80;;;-9.80;99.90;;;;;;4404818;28;660453;-74
2023/02/09 04:22:51;;;;;;;79.63;23.83;;;-9.80;99.90;;;;;;4387083;28;658392;-74
2023/02/09 04:25:38;;;;;;;121.28;31.08;;;-9.90;99.90;;;;;;4410444;28;659005;-73
2023/02/09 04:28:26;;;;;;;60.33;18.57;;;-9.80;99.90;;;;;;4386028;28;660155;-74
2023/02/09 04:31:14;;;;;;;52.73;16.93;;;-9.80;99.90;;;;;;4410694;28;659301;-73
2023/02/09 04:34:01;;;;;;;63.67;19.27;;;-9.80;99.90;;;;;;4366407;28;660093;-74
2023/02/09 04:36:49;;;;;;;65.27;19.50;;;-9.80;99.90;;;;;;4385941;28;658493;-73
2023/02/09 04:39:36;;;;;;;62.10;18.17;;;-9.80;99.90;;;;;;4370227;28;658779;-74
2023/02/09 04:42:23;;;;;;;54.33;17.80;;;-9.80;99.90;;;;;;4391931;28;659175;-74
2023/02/09 04:45:10;;;;;;;49.83;16.23;;;-9.80;99.90;;;;;;4368327;28;659457;-74
2023/02/09 04:47:59;;;;;;;47.20;16.50;;;-9.80;99.90;;;;;;4386525;28;659127;-73
2023/02/09 04:50:46;;;;;;;43.77;13.97;;;-9.80;99.90;;;;;;4372865;28;658807;-74
2023/02/09 04:53:33;;;;;;;52.57;15.63;;;-9.90;99.90;;;;;;4387527;28;659640;-74
2023/02/09 04:56:21;;;;;;;42.83;14.33;;;-9.90;99.90;;;;;;4373683;28;658800;-75
2023/02/09 05:02:14;;;;;;;43.23;16.03;;;-10.00;99.90;;;;;;4367532;28;659467;-74
2023/02/09 05:05:02;;;;;;;42.33;14.23;;;-9.90;99.90;;;;;;4366124;28;659557;-74
2023/02/09 05:07:49;;;;;;;40.00;14.17;;;-9.90;99.90;;;;;;4397118;28;658324;-73
2023/02/09 05:10:37;;;;;;;50.40;15.93;;;-10.00;99.90;;;;;;4355810;28;659281;-74
2023/02/09 05:13:24;;;;;;;91.03;25.30;;;-10.00;99.90;;;;;;4388032;28;659960;-73
2023/02/09 05:16:14;;;;;;;84.20;25.97;;;-10.00;99.90;;;;;;4365160;28;660423;-74
2023/02/09 05:19:01;;;;;;;49.60;16.50;;;-10.00;99.90;;;;;;4373144;28;660125;-73
2023/02/09 05:21:50;;;;;;;62.37;19.10;;;-10.00;99.90;;;;;;4389070;28;660743;-74
2023/02/09 05:24:37;;;;;;;66.22;21.52;;;-10.00;99.90;;;;;;4370635;28;660441;-73
2023/02/09 05:27:24;;;;;;;62.60;21.30;;;-10.00;99.90;;;;;;4379181;28;659239;-74
2023/02/09 05:30:12;;;;;;;135.27;30.93;;;-10.10;99.90;;;;;;4364774;28;660344;-73
2023/02/09 05:32:59;;;;;;;159.43;33.50;;;-10.10;99.90;;;;;;4398022;28;661274;-74
2023/02/09 05:35:47;;;;;;;139.13;35.33;;;-10.10;99.90;;;;;;4386987;28;660998;-74
2023/02/09 05:38:35;;;;;;;262.77;39.90;;;-10.10;99.90;;;;;;4412448;28;660324;-74
2023/02/09 05:44:26;;;;;;;265.80;43.27;;;-10.10;99.90;;;;;;4353709;28;660717;-74
2023/02/09 05:47:14;;;;;;;66.37;20.60;;;-10.10;99.90;;;;;;4392009;28;661811;-74
2023/02/09 05:50:02;;;;;;;134.80;27.60;;;-10.10;99.90;;;;;;4383141;28;660227;-74
2023/02/09 05:52:49;;;;;;;68.37;20.83;;;-10.10;99.90;;;;;;4410414;28;660676;-73
2023/02/09 05:55:37;;;;;;;65.47;18.57;;;-10.10;99.90;;;;;;4386810;28;659540;-74
2023/02/09 05:58:25;;;;;;;55.37;17.50;;;-10.10;99.90;;;;;;4394549;28;660038;-74
2023/02/09 06:01:13;;;;;;;60.00;19.20;;;-10.10;99.90;;;;;;4400687;28;660689;-73
2023/02/09 06:04:00;;;;;;;861.77;146.30;;;-10.10;99.90;;;;;;4395213;28;659913;-73
2023/02/09 06:06:47;;;;;;;535.03;84.53;;;-10.10;99.90;;;;;;4401228;28;663154;-73
2023/02/09 06:09:35;;;;;;;786.47;133.07;;;-10.10;99.90;;;;;;4404674;28;660998;-73
2023/02/09 06:12:24;;;;;;;521.30;91.73;;;-10.10;99.90;;;;;;4399335;28;662165;-73
2023/02/09 06:15:12;;;;;;;644.30;122.40;;;-10.10;99.90;;;;;;4377954;28;660681;-74
2023/02/09 06:17:59;;;;;;;568.33;103.17;;;-10.10;99.90;;;;;;4402702;28;661587;-74
2023/02/09 06:20:46;;;;;;;565.13;100.73;;;-10.10;99.90;;;;;;4382629;28;661590;-74
2023/02/09 06:23:33;;;;;;;485.80;84.43;;;-10.10;99.90;;;;;;4403562;28;662389;-73
2023/02/09 06:26:20;;;;;;;753.00;183.00;;;-10.10;99.90;;;;;;4383525;28;660397;-73
2023/02/09 06:29:09;;;;;;;697.13;172.50;;;-10.00;99.90;;;;;;4409286;28;662884;-73
2023/02/09 06:31:56;;;;;;;576.20;135.32;;;-10.00;99.90;;;;;;4385362;28;661992;-73
2023/02/09 06:34:44;;;;;;;528.80;127.10;;;-9.90;99.90;;;;;;4403177;28;662404;-73
2023/02/09 06:37:31;;;;;;;481.23;120.83;;;-9.80;99.90;;;;;;4377183;28;661001;-73
2023/02/09 06:40:19;;;;;;;474.60;141.57;;;-9.80;99.90;;;;;;4400617;28;661859;-73
2023/02/09 06:43:06;;;;;;;386.23;113.33;;;-9.70;99.90;;;;;;4377362;28;660423;-73
2023/02/09 06:45:55;;;;;;;295.47;97.53;;;-9.60;99.90;;;;;;4405621;28;660913;-73
2023/02/09 06:48:42;;;;;;;240.87;81.47;;;-9.50;99.90;;;;;;4385333;28;660049;-74
2023/02/09 06:51:30;;;;;;;217.47;69.07;;;-9.40;99.90;;;;;;4397944;28;659378;-73
2023/02/09 06:54:18;;;;;;;214.83;73.37;;;-9.30;99.90;;;;;;4402165;28;660881;-73
2023/02/09 06:57:06;;;;;;;224.40;76.27;;;-9.10;99.90;;;;;;4388285;28;660817;-73
2023/02/09 06:59:53;;;;;;;221.60;72.97;;;-8.90;99.90;;;;;;4375145;28;660753;-74
2023/02/09 07:02:43;;;;;;;196.20;66.97;;;-8.80;99.90;;;;;;4239337;28;659546;-73
2023/02/09 07:05:30;;;;;;;197.43;66.78;;;-8.70;99.90;;;;;;4221110;28;659776;-73
2023/02/09 07:08:18;;;;;;;182.70;57.33;;;-8.40;99.90;;;;;;4369424;28;660175;-72
2023/02/09 07:11:06;;;;;;;179.75;63.65;;;-8.30;99.90;;;;;;4384201;28;660129;-73
2023/02/09 07:13:53;;;;;;;158.93;54.08;;;-8.10;99.90;;;;;;4409417;28;660278;-72
2023/02/09 07:16:41;;;;;;;204.63;66.93;;;-8.00;99.90;;;;;;4386918;28;659416;-72
2023/02/09 07:19:29;;;;;;;334.70;111.50;;;-7.80;99.90;;;;;;4409925;28;659557;-72
2023/02/09 07:22:16;;;;;;;332.57;116.20;;;-7.60;99.90;;;;;;4387356;28;661464;-72
2023/02/09 07:25:04;;;;;;;272.83;95.67;;;-7.40;99.90;;;;;;4399977;28;660763;-73
2023/02/09 07:27:51;;;;;;;200.13;70.80;;;-7.20;99.90;;;;;;4378922;28;659270;-73
2023/02/09 07:30:39;;;;;;;133.67;48.07;;;-7.00;99.90;;;;;;4407493;28;659834;-73
2023/02/09 07:33:27;;;;;;;250.47;82.80;;;-6.80;99.90;;;;;;4380657;28;659744;-72
2023/02/09 07:36:16;;;;;;;191.43;71.30;;;-6.50;99.90;;;;;;4404071;28;659844;-73
2023/02/09 07:39:03;;;;;;;197.63;69.03;;;-6.30;99.90;;;;;;4382580;28;660205;-72
2023/02/09 07:41:50;;;;;;;193.53;73.00;;;-6.10;99.90;;;;;;4385973;28;659773;-73
2023/02/09 07:44:38;;;;;;;227.80;86.43;;;-5.90;99.90;;;;;;4391448;28;660804;-73
2023/02/09 07:47:25;;;;;;;189.83;70.43;;;-5.70;99.90;;;;;;4393799;28;659888;-73
2023/02/09 07:50:13;;;;;;;182.73;66.60;;;-5.50;99.90;;;;;;4405576;28;660888;-73
2023/02/09 07:53:02;;;;;;;108.10;39.83;;;-5.20;99.90;;;;;;4401450;28;659645;-73
2023/02/09 07:55:49;;;;;;;123.27;47.37;;;-4.90;99.90;;;;;;4410141;28;659213;-74
2023/02/09 07:58:36;;;;;;;76.77;28.97;;;-4.70;99.90;;;;;;4385982;28;660251;-74
2023/02/09 08:01:25;;;;;;;117.68;31.33;;;-4.40;99.90;;;;;;4400944;28;659295;-73
2023/02/09 08:04:12;;;;;;;70.03;24.00;;;-4.10;99.90;;;;;;4380621;28;661269;-73
2023/02/09 08:06:59;;;;;;;46.95;18.75;;;-3.80;99.90;;;;;;4399918;28;658755;-72
2023/02/09 08:09:48;;;;;;;43.80;16.33;;;-3.50;99.90;;;;;;4379313;28;660026;-72
2023/02/09 08:15:41;;;;;;;44.83;17.47;;;-3.00;99.90;;;;;;4362887;28;659283;-72
2023/02/09 08:18:30;;;;;;;44.97;18.10;;;-2.50;99.90;;;;;;4404599;28;659242;-73
2023/02/09 08:21:18;;;;;;;43.13;16.60;;;-2.30;99.90;;;;;;4379102;28;659087;-72
2023/02/09 08:24:06;;;;;;;46.67;17.57;;;-1.90;99.90;;;;;;4395426;28;659891;-71
2023/02/09 08:26:54;;;;;;;47.80;18.90;;;-1.50;99.90;;;;;;4404263;28;660400;-72
2023/02/09 08:29:41;;;;;;;53.80;19.57;;;-1.00;99.90;;;;;;4383185;28;658980;-72
2023/02/09 08:32:29;;;;;;;54.43;21.17;;;-0.60;99.90;;;;;;4403550;28;659061;-72
2023/02/09 08:35:16;;;;;;;60.97;24.27;;;-0.10;99.90;;;;;;4385420;28;658898;-74
2023/02/09 08:38:03;;;;;;;53.95;22.65;;;0.40;99.90;;;;;;4395595;28;659710;-73
2023/02/09 08:40:51;;;;;;;52.83;20.73;;;0.70;99.90;;;;;;4386349;28;657634;-73
2023/02/09 08:43:39;;;;;;;59.00;23.57;;;1.10;99.90;;;;;;4409367;28;658540;-73
2023/02/09 08:46:27;;;;;;;55.43;23.17;;;1.60;99.90;;;;;;4380843;28;658064;-73
2023/02/09 08:49:14;;;;;;;56.03;22.67;;;1.70;99.90;;;;;;4387845;28;657588;-73
2023/02/09 08:52:01;;;;;;;56.00;23.00;;;1.70;99.90;;;;;;4360947;28;658018;-74
2023/02/09 08:54:49;;;;;;;56.20;24.00;;;2.10;99.90;;;;;;4374544;28;657984;-73
2023/02/09 08:57:37;;;;;;;53.40;22.37;;;2.20;99.90;;;;;;4376078;28;657697;-73
2023/02/09 09:00:26;;;;;;;53.17;22.13;;;2.40;95.10;;;;;;4405430;28;657470;-74
2023/02/09 09:03:14;;;;;;;43.13;19.90;;;2.80;93.90;;;;;;4372018;28;658198;-74
2023/02/09 09:06:02;;;;;;;42.17;19.48;;;2.90;86.40;;;;;;4380461;28;657710;-74
2023/02/09 09:08:50;;;;;;;71.00;27.67;;;3.30;84.40;;;;;;4394809;28;657176;-74
2023/02/09 09:11:37;;;;;;;68.97;27.57;;;3.40;82.10;;;;;;4380615;28;658941;-73
2023/02/09 09:14:25;;;;;;;58.67;25.93;;;3.60;81.20;;;;;;4396984;28;658187;-74
2023/02/09 09:17:14;;;;;;;63.43;26.87;;;3.70;77.70;;;;;;4379761;28;658357;-74
2023/02/09 09:20:01;;;;;;;65.73;28.27;;;3.90;76.70;;;;;;4385077;28;657803;-74
2023/02/09 09:22:48;;;;;;;59.00;26.20;;;4.10;74.00;;;;;;4409038;28;658097;-74
2023/02/09 09:25:37;;;;;;;60.27;26.30;;;4.70;75.30;;;;;;4386946;28;657878;-73
2023/02/09 09:28:24;;;;;;;60.80;25.90;;;5.30;69.80;;;;;;4417614;28;656982;-73
2023/02/09 09:31:13;;;;;;;65.67;27.70;;;5.70;65.80;;;;;;4393378;28;657451;-72
2023/02/09 09:34:02;;;;;;;61.73;26.53;;;5.90;59.40;;;;;;4391477;28;658030;-73
2023/02/09 09:36:50;;;;;;;56.27;22.50;;;6.20;61.40;;;;;;4407132;28;657875;-74
2023/02/09 09:39:37;;;;;;;39.87;17.77;;;6.80;60.00;;;;;;4386991;28;658315;-74
2023/02/09 09:42:25;;;;;;;33.73;16.47;;;7.10;54.60;;;;;;4417533;28;657805;-73
2023/02/09 09:45:14;;;;;;;30.50;13.33;;;6.90;52.70;;;;;;4385879;28;658274;-73
2023/02/09 09:48:01;;;;;;;25.93;12.40;;;6.90;53.30;;;;;;4384924;28;657458;-73
2023/02/09 09:50:50;;;;;;;16.40;7.67;;;7.30;51.90;;;;;;4409385;28;658085;-72
2023/02/09 09:53:37;;;;;;;16.77;8.23;;;7.20;48.40;;;;;;4378774;28;659602;-72
2023/02/09 09:56:24;;;;;;;19.60;9.40;;;7.20;48.20;;;;;;4407889;28;656883;-71
2023/02/09 09:59:15;;;;;;;17.37;7.80;;;7.20;46.70;;;;;;4386001;28;657109;-72
2023/02/09 10:02:14;;;;;;;25.50;10.87;;;7.20;46.70;;;;;;4390930;28;657161;-72
2023/02/09 10:05:02;;;;;;;32.77;14.33;;;7.10;47.20;;;;;;4387669;28;657449;-71
2023/02/09 10:07:55;;;;;;;34.67;15.40;;;6.80;47.60;;;;;;4410345;28;658064;-73
2023/02/09 10:10:45;;;;;;;38.77;14.63;;;6.90;48.70;;;;;;4381400;28;657948;-73
2023/02/09 10:13:34;;;;;;;44.50;18.43;;;7.20;48.40;;;;;;4383803;28;658993;-73
2023/02/09 10:16:23;;;;;;;47.30;18.77;;;7.30;48.60;;;;;;4383474;28;658086;-73
2023/02/09 10:19:18;;;;;;;29.13;14.23;;;7.60;46.30;;;;;;4380242;28;657321;-73
2023/02/09 10:22:05;;;;;;;41.03;17.80;;;7.90;46.60;;;;;;4372913;28;658734;-73
2023/02/09 10:24:54;;;;;;;46.93;19.30;;;7.90;48.30;;;;;;4411804;28;658576;-73
2023/02/09 10:27:45;;;;;;;47.67;21.10;;;8.40;44.50;;;;;;4371104;28;657668;-73
2023/02/09 10:30:33;;;;;;;44.87;19.23;;;8.30;46.40;;;;;;4387173;28;658578;-73
2023/02/09 10:33:20;;;;;;;33.27;16.13;;;8.50;45.00;;;;;;4386632;28;657396;-73
2023/02/09 10:36:20;;;;;;;31.17;14.70;;;8.60;43.80;;;;;;4410482;28;657775;-72
2023/02/09 10:39:14;;;;;;;36.50;16.33;;;8.70;43.80;;;;;;4382062;28;657992;-72
2023/02/09 10:42:16;;;;;;;32.87;15.60;;;9.10;42.20;;;;;;4380467;28;658138;-73
2023/02/09 10:45:07;;;;;;;41.90;17.37;;;9.10;40.40;;;;;;4382906;28;657767;-72
2023/02/09 10:47:58;;;;;;;40.57;19.10;;;8.70;42.40;;;;;;4387358;28;656904;-73
2023/02/09 10:50:50;;;;;;;46.17;22.13;;;9.10;42.70;;;;;;4383232;28;657600;-73
2023/02/09 10:53:38;;;;;;;38.97;17.43;;;9.60;41.20;;;;;;4386117;28;658692;-72
2023/02/09 10:56:26;;;;;;;40.07;19.33;;;9.90;40.10;;;;;;4386224;28;657484;-73
2023/02/09 10:59:16;;;;;;;53.13;22.07;;;9.60;39.70;;;;;;4407416;28;657953;-71
2023/02/09 11:02:04;;;;;;;41.77;20.57;;;9.40;39.00;;;;;;4377970;28;657875;-71
2023/02/09 11:04:51;;;;;;;46.47;22.13;;;8.30;40.40;;;;;;4385022;28;658063;-73
2023/02/09 11:07:38;;;;;;;48.37;22.13;;;8.80;42.90;;;;;;4408083;28;658171;-72
2023/02/09 11:10:26;;;;;;;47.77;22.87;;;9.50;43.40;;;;;;4384192;28;657828;-72
2023/02/09 11:13:22;;;;;;;51.37;25.00;;;10.20;40.20;;;;;;4403015;28;658130;-72
2023/02/09 11:16:36;;;;;;;47.53;23.80;;;11.00;39.60;;;;;;4377872;28;659315;-71
2023/02/09 11:19:58;;;;;;;52.73;24.77;;;11.30;39.70;;;;;;4378695;28;658946;-71
2023/02/09 11:23:04;;;;;;;52.43;24.07;;;10.90;37.40;;;;;;4347965;28;658705;-72
2023/02/09 11:25:54;;;;;;;48.33;22.85;;;11.00;38.20;;;;;;4390904;28;658990;-72
2023/02/09 11:28:47;;;;;;;46.00;23.23;;;11.50;38.40;;;;;;4379934;28;659177;-72
2023/02/09 11:31:45;;;;;;;50.80;25.00;;;12.00;37.80;;;;;;4385168;28;658369;-72
2023/02/09 11:34:54;;;;;;;47.07;22.43;;;12.50;37.40;;;;;;4382745;28;659495;-71
2023/02/09 11:37:47;;;;;;;43.50;22.50;;;12.70;36.10;;;;;;4388913;28;658512;-71
2023/02/09 11:40:36;;;;;;;26.80;13.73;;;12.90;35.20;;;;;;4384631;28;658752;-71
2023/02/09 11:43:26;;;;;;;25.00;13.10;;;12.60;32.10;;;;;;4386661;28;659835;-71
2023/02/09 11:46:14;;;;;;;29.17;15.00;;;12.50;32.50;;;;;;4387543;28;659400;-71
2023/02/09 11:49:06;;;;;;;15.73;8.57;;;12.70;31.40;;;;;;4385950;28;658590;-71
2023/02/09 11:51:53;;;;;;;14.83;7.97;;;11.80;31.30;;;;;;4385920;28;658455;-71
2023/02/09 11:54:40;;;;;;;17.43;8.77;;;11.80;29.00;;;;;;4385375;28;657372;-71
2023/02/09 11:57:31;;;;;;;15.00;8.50;;;10.70;29.10;;;;;;4412448;28;657869;-71
2023/02/09 12:00:20;;;;;;;16.97;8.37;;;10.20;29.40;;;;;;4385088;28;658071;-70
2023/02/09 12:03:09;;;;;;;16.20;8.70;;;10.10;29.80;;;;;;4379748;28;658062;-70
2023/02/09 12:05:58;;;;;;;15.97;8.10;;;10.20;29.20;;;;;;4385666;28;658162;-70
2023/02/09 12:08:50;;;;;;;17.07;8.40;;;9.70;30.20;;;;;;4386196;28;657613;-71
2023/02/09 12:11:43;;;;;;;18.47;9.20;;;9.30;30.30;;;;;;4384957;28;657113;-71
2023/02/09 12:14:39;;;;;;;20.00;9.47;;;9.20;30.00;;;;;;4387009;28;656556;-70
2023/02/09 12:17:31;;;;;;;18.73;9.23;;;8.60;30.00;;;;;;4379214;28;656266;-70
2023/02/09 12:20:27;;;;;;;20.97;10.30;;;8.30;33.10;;;;;;4378799;28;656980;-70
2023/02/09 12:23:19;;;;;;;21.87;11.03;;;8.20;31.10;;;;;;4374654;28;658218;-71
2023/02/09 12:26:35;;;;;;;19.23;10.20;;;9.40;33.20;;;;;;4359520;28;657692;-70
2023/02/09 12:29:35;;;;;;;17.50;9.98;;;10.20;29.90;;;;;;4385051;28;658287;-70
2023/02/09 12:32:29;;;;;;;21.63;11.07;;;9.50;31.60;;;;;;4362705;28;660492;-71
2023/02/09 12:35:27;;;;;;;22.87;11.67;;;10.60;31.30;;;;;;4384934;28;657952;-71
2023/02/09 12:38:16;;;;;;;20.87;11.13;;;11.70;29.90;;;;;;4364417;28;659178;-71
2023/02/09 12:41:06;;;;;;;17.70;9.93;;;11.50;27.10;;;;;;4370454;28;658638;-70
2023/02/09 12:44:04;;;;;;;15.63;8.50;;;12.40;28.70;;;;;;4382194;28;657869;-70
2023/02/09 12:46:53;;;;;;;16.40;7.80;;;13.40;27.20;;;;;;4382232;28;658064;-70
2023/02/09 12:49:41;;;;;;;14.20;7.70;;;12.60;25.60;;;;;;4383642;28;657401;-71
2023/02/09 12:52:28;;;;;;;12.23;6.93;;;12.90;26.40;;;;;;4404859;28;658257;-70
2023/02/09 12:55:17;;;;;;;13.67;7.50;;;13.50;25.30;;;;;;4389694;28;657290;-71
2023/02/09 12:58:39;;;;;;;14.80;7.50;;;13.40;26.00;;;;;;4404700;28;658598;-70
2023/02/09 13:02:05;;;;;;;16.30;8.13;;;13.20;26.00;;;;;;4383556;28;657729;-70
2023/02/09 13:05:03;;;;;;;17.10;7.85;;;12.40;25.90;;;;;;4350036;28;658119;-70
2023/02/09 13:07:53;;;;;;;15.10;7.87;;;13.00;26.60;;;;;;4365952;28;658193;-71
2023/02/09 13:10:42;;;;;;;16.00;7.70;;;12.60;25.10;;;;;;4238795;28;657678;-71
2023/02/09 13:13:43;;;;;;;16.17;8.37;;;13.10;26.70;;;;;;4232068;28;658700;-71
2023/02/09 13:17:02;;;;;;;18.50;8.37;;;13.40;26.80;;;;;;4347862;28;658040;-70
2023/02/09 13:20:17;;;;;;;18.33;8.35;;;12.60;25.50;;;;;;4388215;28;657852;-71
2023/02/09 13:23:15;;;;;;;19.00;8.50;;;12.70;26.60;;;;;;4373050;28;657292;-70
2023/02/09 13:26:10;;;;;;;17.53;8.43;;;13.20;25.70;;;;;;4361743;28;658198;-71
2023/02/09 13:29:08;;;;;;;18.47;9.03;;;12.90;25.90;;;;;;4349069;28;657850;-70
2023/02/09 13:32:00;;;;;;;19.87;9.73;;;11.90;27.60;;;;;;4374121;28;657654;-70
2023/02/09 13:34:49;;;;;;;19.63;10.30;;;13.00;26.90;;;;;;4386065;28;658111;-70
2023/02/09 13:37:40;;;;;;;21.93;10.30;;;11.50;27.10;;;;;;4386105;28;659174;-69
2023/02/09 13:40:28;;;;;;;24.03;10.40;;;11.90;28.00;;;;;;4371943;28;659400;-70
2023/02/09 13:43:17;;;;;;;25.83;11.77;;;13.20;28.10;;;;;;4379429;28;658785;-70
2023/02/09 13:46:06;;;;;;;29.33;12.57;;;12.70;27.30;;;;;;4405314;28;659273;-69
2023/02/09 13:48:54;;;;;;;24.80;11.53;;;10.00;29.00;;;;;;4380969;28;660159;-69
2023/02/09 13:51:41;;;;;;;27.80;12.63;;;11.70;28.90;;;;;;4378666;28;659265;-70
2023/02/09 13:54:28;;;;;;;23.17;11.73;;;12.50;28.30;;;;;;4409569;28;659405;-70
2023/02/09 13:57:28;;;;;;;24.37;11.83;;;13.00;27.60;;;;;;4371288;28;658583;-69
2023/02/09 14:00:21;;;;;;;25.93;12.93;;;13.10;27.00;;;;;;4381198;28;661162;-69
2023/02/09 14:03:15;;;;;;;27.57;13.10;;;13.60;27.30;;;;;;4387042;28;659398;-69
2023/02/09 14:06:03;;;;;;;24.33;12.87;;;14.10;26.90;;;;;;4360993;28;659201;-69
2023/02/09 14:08:50;;;;;;;26.90;13.40;;;14.20;26.70;;;;;;4389028;28;658976;-70
2023/02/09 14:11:39;;;;;;;30.53;13.57;;;13.40;26.30;;;;;;4403224;28;659232;-69
2023/02/09 14:14:27;;;;;;;26.37;12.10;;;12.00;27.90;;;;;;4385093;28;658997;-69
2023/02/09 14:17:22;;;;;;;26.63;12.35;;;12.50;28.00;;;;;;4407933;28;659110;-69